sensor_id;sensor_type;location;lat;lon;timestamp;pressure;altitude;pressure_sealevel;temperature;humidity
75668;BME280;64266;48.798;44.756;2023-05-07T00:01:07;101757.38;;;14.23;52.88
75668;BME280;64266;48.798;44.756;2023-05-07T00:06:10;101787.06;;;14.39;53.29
75668;BME280;64266;48.798;44.756;2023-05-07T00:11:15;101763.97;;;14.20;53.30
75668;BME280;64266;48.798;44.756;2023-05-07T00:16:18;101802.88;;;14.34;53.08
75668;BME280;64266;48.798;44.756;2023-05-07T00:21:21;101799.78;;;14.31;52.85
75668;BME280;64266;48.798;44.756;2023-05-07T00:26:25;101788.19;;;14.19;52.44
75668;BME280;64266;48.798;44.756;2023-05-07T00:31:28;101784.75;;;14.11;53.06
75668;BME280;64266;48.798;44.756;2023-05-07T00:36:31;101803.34;;;14.18;52.99
75668;BME280;64266;48.798;44.756;2023-05-07T00:41:34;101777.41;;;14.00;53.62
75668;BME280;64266;48.798;44.756;2023-05-07T00:46:38;101784.16;;;14.03;53.77
75668;BME280;64266;48.798;44.756;2023-05-07T00:51:41;101767.56;;;14.01;54.31
75668;BME280;64266;48.798;44.756;2023-05-07T00:56:44;101801.81;;;14.04;53.84
75668;BME280;64266;48.798;44.756;2023-05-07T01:01:48;101781.59;;;13.90;54.03
75668;BME280;64266;48.798;44.756;2023-05-07T01:06:51;101784.06;;;13.85;53.13
75668;BME280;64266;48.798;44.756;2023-05-07T01:11:56;101807.59;;;14.01;53.32
75668;BME280;64266;48.798;44.756;2023-05-07T01:17:02;101803.94;;;13.95;53.63
75668;BME280;64266;48.798;44.756;2023-05-07T01:22:09;101795.34;;;13.93;54.60
75668;BME280;64266;48.798;44.756;2023-05-07T01:27:23;101815.00;;;13.99;54.55
75668;BME280;64266;48.798;44.756;2023-05-07T01:32:36;101811.06;;;14.01;56.54
75668;BME280;64266;48.798;44.756;2023-05-07T01:37:40;101812.53;;;13.97;56.21
75668;BME280;64266;48.798;44.756;2023-05-07T01:42:43;101793.25;;;13.95;56.28
75668;BME280;64266;48.798;44.756;2023-05-07T01:47:47;101802.94;;;13.90;57.29
75668;BME280;64266;48.798;44.756;2023-05-07T01:52:51;101835.13;;;13.88;57.38
75668;BME280;64266;48.798;44.756;2023-05-07T01:57:53;101818.19;;;13.70;58.04
75668;BME280;64266;48.798;44.756;2023-05-07T02:02:56;101840.53;;;13.75;57.82
75668;BME280;64266;48.798;44.756;2023-05-07T02:08:16;101841.19;;;13.64;58.29
75668;BME280;64266;48.798;44.756;2023-05-07T02:13:19;101856.56;;;13.69;58.81
75668;BME280;64266;48.798;44.756;2023-05-07T02:18:24;101835.25;;;13.62;59.13
75668;BME280;64266;48.798;44.756;2023-05-07T02:23:27;101850.56;;;13.80;58.42
75668;BME280;64266;48.798;44.756;2023-05-07T02:28:30;101840.47;;;13.88;57.44
75668;BME280;64266;48.798;44.756;2023-05-07T02:33:38;101842.75;;;13.85;55.80
75668;BME280;64266;48.798;44.756;2023-05-07T02:38:43;101872.91;;;13.79;55.95
75668;BME280;64266;48.798;44.756;2023-05-07T02:43:46;101862.13;;;13.61;55.12
75668;BME280;64266;48.798;44.756;2023-05-07T02:48:49;101891.63;;;13.66;55.37
75668;BME280;64266;48.798;44.756;2023-05-07T02:53:52;101892.41;;;13.73;55.65
75668;BME280;64266;48.798;44.756;2023-05-07T02:58:55;101888.34;;;13.64;55.22
75668;BME280;64266;48.798;44.756;2023-05-07T03:04:02;101896.34;;;13.64;55.81
75668;BME280;64266;48.798;44.756;2023-05-07T03:09:07;101899.84;;;13.57;55.49
75668;BME280;64266;48.798;44.756;2023-05-07T03:14:11;101911.72;;;13.62;55.82
75668;BME280;64266;48.798;44.756;2023-05-07T03:19:14;101890.03;;;13.51;55.43
75668;BME280;64266;48.798;44.756;2023-05-07T03:24:17;101928.97;;;13.66;56.06
75668;BME280;64266;48.798;44.756;2023-05-07T03:29:21;101911.72;;;13.75;55.15
75668;BME280;64266;48.798;44.756;2023-05-07T03:34:24;101912.91;;;13.79;55.71
75668;BME280;64266;48.798;44.756;2023-05-07T03:39:26;101932.16;;;13.87;55.35
75668;BME280;64266;48.798;44.756;2023-05-07T03:44:30;101930.97;;;13.77;55.51
75668;BME280;64266;48.798;44.756;2023-05-07T03:49:34;101922.81;;;13.58;56.17
75668;BME280;64266;48.798;44.756;2023-05-07T03:54:37;101928.34;;;13.57;55.23
75668;BME280;64266;48.798;44.756;2023-05-07T03:59:40;101954.97;;;13.64;55.87
75668;BME280;64266;48.798;44.756;2023-05-07T04:04:44;101944.53;;;13.62;55.21
75668;BME280;64266;48.798;44.756;2023-05-07T04:09:46;101982.63;;;13.76;55.73
75668;BME280;64266;48.798;44.756;2023-05-07T04:14:50;101936.38;;;13.37;55.38
75668;BME280;64266;48.798;44.756;2023-05-07T04:19:52;101984.09;;;13.72;54.88
75668;BME280;64266;48.798;44.756;2023-05-07T04:24:55;101967.28;;;13.65;55.41
75668;BME280;64266;48.798;44.756;2023-05-07T04:29:59;101993.28;;;13.95;55.57
75668;BME280;64266;48.798;44.756;2023-05-07T04:35:08;101995.13;;;13.88;54.60
75668;BME280;64266;48.798;44.756;2023-05-07T04:40:11;101998.84;;;13.81;54.65
75668;BME280;64266;48.798;44.756;2023-05-07T04:45:17;101997.81;;;13.82;54.52
75668;BME280;64266;48.798;44.756;2023-05-07T04:50:22;101990.22;;;13.72;53.47
75668;BME280;64266;48.798;44.756;2023-05-07T04:55:30;101996.97;;;13.81;53.59
75668;BME280;64266;48.798;44.756;2023-05-07T05:00:33;101987.34;;;13.93;54.15
75668;BME280;64266;48.798;44.756;2023-05-07T05:05:38;101995.06;;;14.21;53.63
75668;BME280;64266;48.798;44.756;2023-05-07T05:10:41;101989.25;;;14.31;53.94
75668;BME280;64266;48.798;44.756;2023-05-07T05:15:46;101945.41;;;14.13;52.33
75668;BME280;64266;48.798;44.756;2023-05-07T05:20:51;101971.94;;;14.53;51.78
75668;BME280;64266;48.798;44.756;2023-05-07T05:25:56;101985.34;;;14.78;50.63
75668;BME280;64266;48.798;44.756;2023-05-07T05:31:03;101993.56;;;15.07;48.98
75668;BME280;64266;48.798;44.756;2023-05-07T05:36:10;101987.03;;;16.32;46.48
75668;BME280;64266;48.798;44.756;2023-05-07T05:41:13;101944.53;;;16.84;44.14
75668;BME280;64266;48.798;44.756;2023-05-07T05:46:15;101945.97;;;16.98;43.50
75668;BME280;64266;48.798;44.756;2023-05-07T05:51:18;101935.34;;;18.35;39.86
75668;BME280;64266;48.798;44.756;2023-05-07T05:56:21;101955.63;;;19.71;36.75
75668;BME280;64266;48.798;44.756;2023-05-07T06:01:24;101951.03;;;19.00;38.23
75668;BME280;64266;48.798;44.756;2023-05-07T06:06:29;101942.50;;;18.47;38.13
75668;BME280;64266;48.798;44.756;2023-05-07T06:11:34;101961.72;;;18.38;38.94
75668;BME280;64266;48.798;44.756;2023-05-07T06:16:37;101956.84;;;17.72;38.99
75668;BME280;64266;48.798;44.756;2023-05-07T06:21:42;101997.97;;;18.13;38.99
75668;BME280;64266;48.798;44.756;2023-05-07T06:26:45;101984.06;;;18.16;38.92
75668;BME280;64266;48.798;44.756;2023-05-07T06:31:47;101985.59;;;19.58;35.91
75668;BME280;64266;48.798;44.756;2023-05-07T06:36:52;101958.69;;;20.98;33.58
75668;BME280;64266;48.798;44.756;2023-05-07T06:42:13;101951.25;;;21.11;33.35
75668;BME280;64266;48.798;44.756;2023-05-07T06:47:20;101973.34;;;21.86;31.39
75668;BME280;64266;48.798;44.756;2023-05-07T06:52:27;101982.97;;;22.24;31.10
75668;BME280;64266;48.798;44.756;2023-05-07T06:57:30;101990.50;;;22.07;30.71
75668;BME280;64266;48.798;44.756;2023-05-07T07:02:33;101972.34;;;22.70;29.25
75668;BME280;64266;48.798;44.756;2023-05-07T07:07:37;101992.59;;;22.77;29.02
75668;BME280;64266;48.798;44.756;2023-05-07T07:12:40;101989.38;;;22.70;28.62
75668;BME280;64266;48.798;44.756;2023-05-07T07:17:43;101978.28;;;22.72;29.37
75668;BME280;64266;48.798;44.756;2023-05-07T07:22:46;101947.38;;;22.42;29.17
75668;BME280;64266;48.798;44.756;2023-05-07T07:27:50;101956.22;;;22.18;29.34
75668;BME280;64266;48.798;44.756;2023-05-07T07:32:56;101940.03;;;21.71;31.02
75668;BME280;64266;48.798;44.756;2023-05-07T07:38:08;101955.41;;;21.65;30.77
75668;BME280;64266;48.798;44.756;2023-05-07T07:43:10;101921.00;;;21.45;30.91
75668;BME280;64266;48.798;44.756;2023-05-07T07:48:14;101923.91;;;21.34;31.60
75668;BME280;64266;48.798;44.756;2023-05-07T07:53:18;101938.19;;;20.97;32.54
75668;BME280;64266;48.798;44.756;2023-05-07T07:58:22;101950.81;;;20.65;33.06
75668;BME280;64266;48.798;44.756;2023-05-07T08:03:24;101933.47;;;20.08;32.15
75668;BME280;64266;48.798;44.756;2023-05-07T08:08:32;101984.22;;;19.56;32.88
75668;BME280;64266;48.798;44.756;2023-05-07T08:13:36;101988.34;;;19.63;33.42
75668;BME280;64266;48.798;44.756;2023-05-07T08:18:41;101961.34;;;20.18;31.95
75668;BME280;64266;48.798;44.756;2023-05-07T08:23:45;101958.38;;;20.63;31.29
75668;BME280;64266;48.798;44.756;2023-05-07T08:28:48;101976.97;;;20.38;31.40
75668;BME280;64266;48.798;44.756;2023-05-07T08:33:51;101990.78;;;20.25;32.06
75668;BME280;64266;48.798;44.756;2023-05-07T08:38:55;101963.41;;;20.11;31.45
75668;BME280;64266;48.798;44.756;2023-05-07T08:43:58;101956.16;;;19.90;30.64
75668;BME280;64266;48.798;44.756;2023-05-07T08:49:05;101966.47;;;19.98;30.68
75668;BME280;64266;48.798;44.756;2023-05-07T08:54:10;101985.34;;;20.20;30.79
75668;BME280;64266;48.798;44.756;2023-05-07T08:59:14;101993.16;;;19.99;31.63
75668;BME280;64266;48.798;44.756;2023-05-07T09:04:18;101948.75;;;19.80;32.06
75668;BME280;64266;48.798;44.756;2023-05-07T09:09:22;101986.50;;;19.85;31.01
75668;BME280;64266;48.798;44.756;2023-05-07T09:14:29;101978.00;;;19.55;31.87
75668;BME280;64266;48.798;44.756;2023-05-07T09:19:33;101964.78;;;19.37;32.73
75668;BME280;64266;48.798;44.756;2023-05-07T09:24:40;101979.53;;;19.18;33.62
75668;BME280;64266;48.798;44.756;2023-05-07T09:29:46;101956.47;;;18.88;34.79
75668;BME280;64266;48.798;44.756;2023-05-07T09:34:51;101972.13;;;19.08;35.49
75668;BME280;64266;48.798;44.756;2023-05-07T09:39:58;101959.66;;;19.19;35.88
75668;BME280;64266;48.798;44.756;2023-05-07T09:45:05;101956.47;;;19.05;35.50
75668;BME280;64266;48.798;44.756;2023-05-07T09:50:12;101963.09;;;18.98;34.74
75668;BME280;64266;48.798;44.756;2023-05-07T09:55:16;101958.59;;;19.03;35.36
75668;BME280;64266;48.798;44.756;2023-05-07T10:00:22;101949.97;;;19.18;34.95
75668;BME280;64266;48.798;44.756;2023-05-07T10:05:35;101962.34;;;19.19;35.40
75668;BME280;64266;48.798;44.756;2023-05-07T10:10:40;101912.97;;;18.91;35.80
75668;BME280;64266;48.798;44.756;2023-05-07T10:15:50;101955.81;;;19.15;35.32
75668;BME280;64266;48.798;44.756;2023-05-07T10:20:56;101978.66;;;19.12;35.84
75668;BME280;64266;48.798;44.756;2023-05-07T10:26:04;101969.69;;;19.07;36.14
75668;BME280;64266;48.798;44.756;2023-05-07T10:36:32;101939.75;;;18.70;35.60
75668;BME280;64266;48.798;44.756;2023-05-07T10:41:40;101970.56;;;18.51;36.12
75668;BME280;64266;48.798;44.756;2023-05-07T10:47:06;101950.72;;;18.40;35.93
75668;BME280;64266;48.798;44.756;2023-05-07T10:52:17;101969.38;;;18.47;36.68
75668;BME280;64266;48.798;44.756;2023-05-07T10:57:36;101979.13;;;18.24;36.28
75668;BME280;64266;48.798;44.756;2023-05-07T11:03:06;101911.34;;;17.54;36.20
75668;BME280;64266;48.798;44.756;2023-05-07T11:08:19;101978.75;;;17.93;36.84
75668;BME280;64266;48.798;44.756;2023-05-07T11:18:52;101954.19;;;17.61;36.45
75668;BME280;64266;48.798;44.756;2023-05-07T11:24:09;101918.47;;;17.37;37.13
75668;BME280;64266;48.798;44.756;2023-05-07T11:29:23;101939.59;;;17.33;36.69
75668;BME280;64266;48.798;44.756;2023-05-07T11:34:32;101949.47;;;17.33;36.12
75668;BME280;64266;48.798;44.756;2023-05-07T11:39:37;101938.28;;;17.36;36.77
75668;BME280;64266;48.798;44.756;2023-05-07T11:44:45;101919.63;;;17.29;35.99
75668;BME280;64266;48.798;44.756;2023-05-07T11:49:54;101928.28;;;17.43;36.15
75668;BME280;64266;48.798;44.756;2023-05-07T11:55:02;101927.69;;;17.29;35.81
75668;BME280;64266;48.798;44.756;2023-05-07T12:00:07;101925.72;;;17.25;36.02
75668;BME280;64266;48.798;44.756;2023-05-07T12:05:16;101913.81;;;17.21;36.31
75668;BME280;64266;48.798;44.756;2023-05-07T12:10:20;101932.00;;;17.30;36.36
75668;BME280;64266;48.798;44.756;2023-05-07T12:15:22;101927.47;;;17.19;37.81
75668;BME280;64266;48.798;44.756;2023-05-07T12:20:26;101935.72;;;17.06;43.28
75668;BME280;64266;48.798;44.756;2023-05-07T12:25:35;101937.03;;;16.74;45.62
75668;BME280;64266;48.798;44.756;2023-05-07T12:30:39;101950.28;;;16.39;46.20
75668;BME280;64266;48.798;44.756;2023-05-07T12:35:43;101939.09;;;16.12;49.28
75668;BME280;64266;48.798;44.756;2023-05-07T12:40:54;101947.34;;;16.11;52.23
75668;BME280;64266;48.798;44.756;2023-05-07T12:46:08;101911.25;;;15.65;53.02
75668;BME280;64266;48.798;44.756;2023-05-07T12:51:11;101953.38;;;15.45;54.73
75668;BME280;64266;48.798;44.756;2023-05-07T12:56:15;101930.41;;;14.95;54.93
75668;BME280;64266;48.798;44.756;2023-05-07T13:01:18;101948.44;;;14.68;56.28
75668;BME280;64266;48.798;44.756;2023-05-07T13:06:21;101949.84;;;14.39;58.37
75668;BME280;64266;48.798;44.756;2023-05-07T13:11:24;101958.28;;;14.30;59.39
75668;BME280;64266;48.798;44.756;2023-05-07T13:16:27;101964.22;;;14.25;58.69
75668;BME280;64266;48.798;44.756;2023-05-07T13:21:30;101978.41;;;14.19;60.30
75668;BME280;64266;48.798;44.756;2023-05-07T13:26:36;101971.25;;;14.13;62.34
75668;BME280;64266;48.798;44.756;2023-05-07T13:31:38;101995.22;;;14.26;62.14
75668;BME280;64266;48.798;44.756;2023-05-07T13:36:46;101993.59;;;14.19;62.69
75668;BME280;64266;48.798;44.756;2023-05-07T13:41:48;101958.03;;;13.80;63.69
75668;BME280;64266;48.798;44.756;2023-05-07T13:46:52;101948.66;;;13.58;64.67
75668;BME280;64266;48.798;44.756;2023-05-07T13:51:55;101986.13;;;13.70;64.31
75668;BME280;64266;48.798;44.756;2023-05-07T13:56:59;101986.13;;;13.70;66.91
75668;BME280;64266;48.798;44.756;2023-05-07T14:02:03;101995.59;;;13.59;65.33
75668;BME280;64266;48.798;44.756;2023-05-07T14:07:06;101991.69;;;13.42;66.55
75668;BME280;64266;48.798;44.756;2023-05-07T14:12:10;101980.25;;;13.22;67.06
75668;BME280;64266;48.798;44.756;2023-05-07T14:17:14;101958.88;;;13.02;68.54
75668;BME280;64266;48.798;44.756;2023-05-07T14:22:20;101981.81;;;12.90;71.24
75668;BME280;64266;48.798;44.756;2023-05-07T14:27:23;101997.75;;;12.83;70.53
75668;BME280;64266;48.798;44.756;2023-05-07T14:32:26;101993.66;;;12.81;71.44
75668;BME280;64266;48.798;44.756;2023-05-07T14:37:29;101962.31;;;12.63;72.58
75668;BME280;64266;48.798;44.756;2023-05-07T14:42:32;101975.59;;;12.57;72.41
75668;BME280;64266;48.798;44.756;2023-05-07T14:47:34;102015.56;;;12.70;73.27
75668;BME280;64266;48.798;44.756;2023-05-07T14:52:37;102003.88;;;12.64;73.64
75668;BME280;64266;48.798;44.756;2023-05-07T14:57:40;102000.16;;;12.59;74.25
75668;BME280;64266;48.798;44.756;2023-05-07T15:02:43;101986.66;;;12.60;73.20
75668;BME280;64266;48.798;44.756;2023-05-07T15:07:46;101994.81;;;12.59;72.92
75668;BME280;64266;48.798;44.756;2023-05-07T15:12:48;102003.84;;;12.58;72.97
75668;BME280;64266;48.798;44.756;2023-05-07T15:17:53;101992.94;;;12.39;71.22
75668;BME280;64266;48.798;44.756;2023-05-07T15:22:56;102002.97;;;12.44;70.71
75668;BME280;64266;48.798;44.756;2023-05-07T15:27:59;101996.38;;;12.27;71.35
75668;BME280;64266;48.798;44.756;2023-05-07T15:33:02;101985.91;;;12.25;71.27
75668;BME280;64266;48.798;44.756;2023-05-07T15:38:06;102009.69;;;12.33;70.09
75668;BME280;64266;48.798;44.756;2023-05-07T15:43:11;102008.22;;;12.31;70.39
75668;BME280;64266;48.798;44.756;2023-05-07T15:48:14;102007.44;;;12.30;69.56
75668;BME280;64266;48.798;44.756;2023-05-07T15:53:16;102009.44;;;12.28;69.63
75668;BME280;64266;48.798;44.756;2023-05-07T15:58:19;101992.81;;;12.13;69.93
75668;BME280;64266;48.798;44.756;2023-05-07T16:03:22;102014.78;;;12.28;70.34
75668;BME280;64266;48.798;44.756;2023-05-07T16:08:25;102020.09;;;12.28;69.13
75668;BME280;64266;48.798;44.756;2023-05-07T16:13:29;102026.81;;;12.18;69.13
75668;BME280;64266;48.798;44.756;2023-05-07T16:18:31;102030.66;;;12.09;68.63
75668;BME280;64266;48.798;44.756;2023-05-07T16:23:34;102087.22;;;12.30;69.21
75668;BME280;64266;48.798;44.756;2023-05-07T16:28:38;102092.56;;;12.30;70.45
75668;BME280;64266;48.798;44.756;2023-05-07T16:33:40;102040.09;;;11.83;72.05
75668;BME280;64266;48.798;44.756;2023-05-07T16:38:43;102078.84;;;11.99;73.03
75668;BME280;64266;48.798;44.756;2023-05-07T16:43:45;102074.59;;;11.77;73.75
75668;BME280;64266;48.798;44.756;2023-05-07T16:48:48;102043.31;;;11.58;74.77
75668;BME280;64266;48.798;44.756;2023-05-07T16:53:51;102070.56;;;11.66;74.43
75668;BME280;64266;48.798;44.756;2023-05-07T16:58:54;102049.22;;;11.53;75.57
75668;BME280;64266;48.798;44.756;2023-05-07T17:03:57;102020.28;;;11.37;74.61
75668;BME280;64266;48.798;44.756;2023-05-07T17:09:00;102025.38;;;11.38;73.62
75668;BME280;64266;48.798;44.756;2023-05-07T17:14:03;102017.19;;;11.33;73.40
75668;BME280;64266;48.798;44.756;2023-05-07T17:19:06;102020.28;;;11.37;73.62
75668;BME280;64266;48.798;44.756;2023-05-07T17:24:09;102037.91;;;11.44;73.03
75668;BME280;64266;48.798;44.756;2023-05-07T17:29:13;102047.34;;;11.47;73.17
75668;BME280;64266;48.798;44.756;2023-05-07T17:34:17;102035.00;;;11.39;70.59
75668;BME280;64266;48.798;44.756;2023-05-07T17:39:21;102049.84;;;11.55;69.11
75668;BME280;64266;48.798;44.756;2023-05-07T17:44:23;102059.31;;;11.64;69.63
75668;BME280;64266;48.798;44.756;2023-05-07T17:49:27;102035.34;;;11.58;69.09
75668;BME280;64266;48.798;44.756;2023-05-07T17:54:31;102037.44;;;11.62;68.92
75668;BME280;64266;48.798;44.756;2023-05-07T17:59:34;102037.25;;;11.64;67.54
75668;BME280;64266;48.798;44.756;2023-05-07T18:04:37;102012.66;;;11.55;66.31
75668;BME280;64266;48.798;44.756;2023-05-07T18:09:39;102049.28;;;11.81;67.05
75668;BME280;64266;48.798;44.756;2023-05-07T18:14:42;102057.72;;;11.91;67.07
75668;BME280;64266;48.798;44.756;2023-05-07T18:19:45;102043.63;;;11.97;67.35
75668;BME280;64266;48.798;44.756;2023-05-07T18:24:48;102039.50;;;11.88;66.61
75668;BME280;64266;48.798;44.756;2023-05-07T18:29:51;102028.72;;;11.96;67.74
75668;BME280;64266;48.798;44.756;2023-05-07T18:34:54;102001.03;;;11.84;66.01
75668;BME280;64266;48.798;44.756;2023-05-07T18:39:57;102007.25;;;11.98;67.73
75668;BME280;64266;48.798;44.756;2023-05-07T18:45:03;101998.44;;;11.97;66.86
75668;BME280;64266;48.798;44.756;2023-05-07T18:50:10;101986.50;;;11.80;65.67
75668;BME280;64266;48.798;44.756;2023-05-07T18:55:14;101992.81;;;11.79;65.62
75668;BME280;64266;48.798;44.756;2023-05-07T19:00:18;101992.81;;;11.79;65.72
75668;BME280;64266;48.798;44.756;2023-05-07T19:05:20;101986.06;;;11.76;65.73
75668;BME280;64266;48.798;44.756;2023-05-07T19:10:24;101974.53;;;11.69;65.58
75668;BME280;64266;48.798;44.756;2023-05-07T19:15:27;101958.31;;;11.58;65.36
75668;BME280;64266;48.798;44.756;2023-05-07T19:20:30;102004.09;;;11.81;65.56
75668;BME280;64266;48.798;44.756;2023-05-07T19:25:34;102001.44;;;11.87;65.15
75668;BME280;64266;48.798;44.756;2023-05-07T19:30:37;101978.53;;;11.80;65.19
75668;BME280;64266;48.798;44.756;2023-05-07T19:35:41;101979.56;;;11.85;64.75
75668;BME280;64266;48.798;44.756;2023-05-07T19:40:43;101992.34;;;11.97;64.64
75668;BME280;64266;48.798;44.756;2023-05-07T19:45:47;102000.72;;;12.00;64.41
75668;BME280;64266;48.798;44.756;2023-05-07T19:50:51;101988.88;;;12.03;65.19
75668;BME280;64266;48.798;44.756;2023-05-07T19:56:02;101997.31;;;12.13;67.51
75668;BME280;64266;48.798;44.756;2023-05-07T20:01:05;101993.06;;;12.25;66.68
75668;BME280;64266;48.798;44.756;2023-05-07T20:06:08;101958.78;;;11.95;65.08
75668;BME280;64266;48.798;44.756;2023-05-07T20:11:11;101982.56;;;12.10;65.97
75668;BME280;64266;48.798;44.756;2023-05-07T20:16:14;101997.13;;;12.14;65.28
75668;BME280;64266;48.798;44.756;2023-05-07T20:21:17;101968.81;;;12.00;65.34
75668;BME280;64266;48.798;44.756;2023-05-07T20:26:19;102004.91;;;12.22;65.75
75668;BME280;64266;48.798;44.756;2023-05-07T20:31:22;101962.88;;;11.98;66.54
75668;BME280;64266;48.798;44.756;2023-05-07T20:36:24;101989.72;;;12.10;65.98
75668;BME280;64266;48.798;44.756;2023-05-07T20:41:28;101967.31;;;11.91;65.40
75668;BME280;64266;48.798;44.756;2023-05-07T20:46:31;102001.19;;;12.10;65.49
75668;BME280;64266;48.798;44.756;2023-05-07T20:51:34;102008.34;;;12.10;64.30
75668;BME280;64266;48.798;44.756;2023-05-07T20:56:38;101997.25;;;12.00;64.09
75668;BME280;64266;48.798;44.756;2023-05-07T21:01:40;102006.41;;;11.97;63.18
75668;BME280;64266;48.798;44.756;2023-05-07T21:06:44;102003.94;;;11.89;62.92
75668;BME280;64266;48.798;44.756;2023-05-07T21:11:48;102005.41;;;11.98;62.20
75668;BME280;64266;48.798;44.756;2023-05-07T21:16:51;102010.16;;;12.03;62.12
75668;BME280;64266;48.798;44.756;2023-05-07T21:21:55;101987.75;;;11.84;62.27
75668;BME280;64266;48.798;44.756;2023-05-07T21:26:59;101975.13;;;11.65;62.56
75668;BME280;64266;48.798;44.756;2023-05-07T21:32:01;101989.84;;;11.67;62.06
75668;BME280;64266;48.798;44.756;2023-05-07T21:37:05;102018.00;;;11.83;61.69
75668;BME280;64266;48.798;44.756;2023-05-07T21:42:09;102011.69;;;11.63;62.71
75668;BME280;64266;48.798;44.756;2023-05-07T21:47:11;101994.22;;;11.54;63.60
75668;BME280;64266;48.798;44.756;2023-05-07T21:52:15;102026.03;;;11.68;63.57
75668;BME280;64266;48.798;44.756;2023-05-07T21:57:19;101989.69;;;11.48;64.68
75668;BME280;64266;48.798;44.756;2023-05-07T22:02:22;101998.75;;;11.53;64.97
75668;BME280;64266;48.798;44.756;2023-05-07T22:07:25;101997.88;;;11.46;65.58
75668;BME280;64266;48.798;44.756;2023-05-07T22:12:29;101984.78;;;11.44;65.62
75668;BME280;64266;48.798;44.756;2023-05-07T22:17:33;101958.13;;;11.31;66.69
75668;BME280;64266;48.798;44.756;2023-05-07T22:22:47;102001.19;;;11.55;65.96
75668;BME280;64266;48.798;44.756;2023-05-07T22:27:53;101988.25;;;11.45;67.16
75668;BME280;64266;48.798;44.756;2023-05-07T22:32:57;101974.06;;;11.31;65.72
75668;BME280;64266;48.798;44.756;2023-05-07T22:38:00;102008.13;;;11.49;66.52
75668;BME280;64266;48.798;44.756;2023-05-07T22:43:04;102015.84;;;11.44;65.33
75668;BME280;64266;48.798;44.756;2023-05-07T22:48:06;102023.47;;;11.54;65.58
75668;BME280;64266;48.798;44.756;2023-05-07T22:53:09;102018.91;;;11.48;65.61
75668;BME280;64266;48.798;44.756;2023-05-07T22:58:12;102029.75;;;11.46;65.60
75668;BME280;64266;48.798;44.756;2023-05-07T23:03:15;101999.66;;;11.18;66.89
75668;BME280;64266;48.798;44.756;2023-05-07T23:08:18;101994.28;;;11.11;66.43
75668;BME280;64266;48.798;44.756;2023-05-07T23:13:22;102027.28;;;11.23;66.70
75668;BME280;64266;48.798;44.756;2023-05-07T23:18:25;101982.16;;;11.02;67.20
75668;BME280;64266;48.798;44.756;2023-05-07T23:23:33;102004.22;;;11.24;67.25
75668;BME280;64266;48.798;44.756;2023-05-07T23:28:35;102016.50;;;11.25;66.74
75668;BME280;64266;48.798;44.756;2023-05-07T23:33:38;101988.13;;;11.04;66.54
75668;BME280;64266;48.798;44.756;2023-05-07T23:38:41;102013.78;;;11.18;66.50
75668;BME280;64266;48.798;44.756;2023-05-07T23:43:44;102016.28;;;11.26;66.66
75668;BME280;64266;48.798;44.756;2023-05-07T23:48:47;101997.59;;;11.13;65.83
75668;BME280;64266;48.798;44.756;2023-05-07T23:53:49;102032.50;;;11.31;64.77
75668;BME280;64266;48.798;44.756;2023-05-07T23:58:52;102021.97;;;11.23;63.81
